sensor_id;sensor_type;location;lat;lon;timestamp;pressure;altitude;pressure_sealevel;temperature;humidity
27805;BME280;15183;51.350;11.102;2023-05-16T00:00:56;99621.59;;;17.37;48.13
27805;BME280;15183;51.350;11.102;2023-05-16T00:03:23;99614.16;;;17.29;48.36
27805;BME280;15183;51.350;11.102;2023-05-16T00:05:50;99615.81;;;17.19;48.07
27805;BME280;15183;51.350;11.102;2023-05-16T00:08:17;99623.88;;;17.14;48.32
27805;BME280;15183;51.350;11.102;2023-05-16T00:10:43;99623.38;;;17.07;47.92
27805;BME280;15183;51.350;11.102;2023-05-16T00:13:09;99634.38;;;17.00;48.42
27805;BME280;15183;51.350;11.102;2023-05-16T00:15:37;99626.06;;;16.91;47.74
27805;BME280;15183;51.350;11.102;2023-05-16T00:18:03;99639.19;;;16.98;48.58
27805;BME280;15183;51.350;11.102;2023-05-16T00:20:30;99643.72;;;16.92;48.09
27805;BME280;15183;51.350;11.102;2023-05-16T00:22:57;99635.16;;;16.90;48.37
27805;BME280;15183;51.350;11.102;2023-05-16T00:25:26;99633.03;;;16.87;48.51
27805;BME280;15183;51.350;11.102;2023-05-16T00:27:53;99633.84;;;16.83;48.43
27805;BME280;15183;51.350;11.102;2023-05-16T00:30:20;99623.47;;;16.66;48.31
27805;BME280;15183;51.350;11.102;2023-05-16T00:32:47;99644.59;;;16.72;48.79
27805;BME280;15183;51.350;11.102;2023-05-16T00:35:14;99644.63;;;16.62;48.75
27805;BME280;15183;51.350;11.102;2023-05-16T00:37:40;99631.25;;;16.46;49.45
27805;BME280;15183;51.350;11.102;2023-05-16T00:40:07;99638.22;;;16.37;49.52
27805;BME280;15183;51.350;11.102;2023-05-16T00:42:34;99627.56;;;16.22;49.38
27805;BME280;15183;51.350;11.102;2023-05-16T00:45:00;99613.63;;;16.04;49.91
27805;BME280;15183;51.350;11.102;2023-05-16T00:47:27;99642.00;;;16.15;49.57
27805;BME280;15183;51.350;11.102;2023-05-16T00:49:53;99634.47;;;16.07;50.42
27805;BME280;15183;51.350;11.102;2023-05-16T00:52:20;99632.09;;;16.05;50.10
27805;BME280;15183;51.350;11.102;2023-05-16T00:54:46;99652.13;;;16.08;50.28
27805;BME280;15183;51.350;11.102;2023-05-16T00:57:13;99647.06;;;16.06;50.30
27805;BME280;15183;51.350;11.102;2023-05-16T00:59:40;99640.38;;;15.99;50.40
27805;BME280;15183;51.350;11.102;2023-05-16T01:02:07;99640.38;;;16.04;50.59
27805;BME280;15183;51.350;11.102;2023-05-16T01:04:34;99648.13;;;16.05;51.12
27805;BME280;15183;51.350;11.102;2023-05-16T01:07:01;99656.94;;;16.06;51.37
27805;BME280;15183;51.350;11.102;2023-05-16T01:09:28;99659.88;;;16.04;50.89
27805;BME280;15183;51.350;11.102;2023-05-16T01:12:26;99661.22;;;16.02;51.23
27805;BME280;15183;51.350;11.102;2023-05-16T01:15:25;99674.31;;;16.03;51.39
27805;BME280;15183;51.350;11.102;2023-05-16T01:18:05;99653.19;;;15.91;51.34
27805;BME280;15183;51.350;11.102;2023-05-16T01:20:55;99681.28;;;16.04;51.62
27805;BME280;15183;51.350;11.102;2023-05-16T01:23:51;99672.19;;;16.05;51.75
27805;BME280;15183;51.350;11.102;2023-05-16T01:26:26;99668.16;;;16.03;51.91
27805;BME280;15183;51.350;11.102;2023-05-16T01:28:54;99663.09;;;15.96;51.61
27805;BME280;15183;51.350;11.102;2023-05-16T01:31:22;99679.13;;;16.01;52.08
27805;BME280;15183;51.350;11.102;2023-05-16T01:33:48;99677.00;;;15.98;51.78
27805;BME280;15183;51.350;11.102;2023-05-16T01:42:02;99678.00;;;15.87;51.98
27805;BME280;15183;51.350;11.102;2023-05-16T01:44:40;99672.09;;;15.80;52.23
27805;BME280;15183;51.350;11.102;2023-05-16T01:47:16;99674.25;;;15.77;52.36
27805;BME280;15183;51.350;11.102;2023-05-16T01:50:01;99657.91;;;15.63;51.89
27805;BME280;15183;51.350;11.102;2023-05-16T01:52:59;99668.34;;;15.65;51.98
27805;BME280;15183;51.350;11.102;2023-05-16T01:55:44;99683.06;;;15.73;52.32
27805;BME280;15183;51.350;11.102;2023-05-16T01:58:13;99685.69;;;15.68;51.95
27805;BME280;15183;51.350;11.102;2023-05-16T02:00:40;99681.69;;;15.55;52.20
27805;BME280;15183;51.350;11.102;2023-05-16T02:03:07;99707.34;;;15.66;51.81
27805;BME280;15183;51.350;11.102;2023-05-16T02:05:34;99711.59;;;15.62;52.10
27805;BME280;15183;51.350;11.102;2023-05-16T02:08:00;99703.59;;;15.62;51.89
27805;BME280;15183;51.350;11.102;2023-05-16T02:10:27;99723.91;;;15.63;52.15
27805;BME280;15183;51.350;11.102;2023-05-16T02:12:53;99729.22;;;15.63;51.90
27805;BME280;15183;51.350;11.102;2023-05-16T02:15:20;99731.63;;;15.59;51.72
27805;BME280;15183;51.350;11.102;2023-05-16T02:17:46;99730.28;;;15.57;52.04
27805;BME280;15183;51.350;11.102;2023-05-16T02:20:13;99732.66;;;15.53;51.99
27805;BME280;15183;51.350;11.102;2023-05-16T02:22:40;99739.84;;;15.53;52.17
27805;BME280;15183;51.350;11.102;2023-05-16T02:25:08;99742.50;;;15.47;51.80
27805;BME280;15183;51.350;11.102;2023-05-16T02:27:35;99748.34;;;15.39;51.81
27805;BME280;15183;51.350;11.102;2023-05-16T02:30:01;99749.09;;;15.29;51.71
27805;BME280;15183;51.350;11.102;2023-05-16T02:32:28;99744.78;;;15.18;51.96
27805;BME280;15183;51.350;11.102;2023-05-16T02:34:54;99745.00;;;15.11;51.93
27805;BME280;15183;51.350;11.102;2023-05-16T02:37:20;99750.78;;;14.98;52.72
27805;BME280;15183;51.350;11.102;2023-05-16T02:39:47;99744.56;;;14.87;52.65
27805;BME280;15183;51.350;11.102;2023-05-16T02:42:13;99744.75;;;14.75;52.47
27805;BME280;15183;51.350;11.102;2023-05-16T02:44:40;99755.31;;;14.65;52.53
27805;BME280;15183;51.350;11.102;2023-05-16T02:47:06;99759.50;;;14.55;52.71
27805;BME280;15183;51.350;11.102;2023-05-16T02:49:33;99759.97;;;14.47;53.13
27805;BME280;15183;51.350;11.102;2023-05-16T02:51:59;99747.81;;;14.29;53.17
27805;BME280;15183;51.350;11.102;2023-05-16T02:54:25;99754.16;;;14.23;53.45
27805;BME280;15183;51.350;11.102;2023-05-16T02:56:52;99755.88;;;14.07;53.36
27805;BME280;15183;51.350;11.102;2023-05-16T02:59:18;99765.97;;;14.04;53.44
27805;BME280;15183;51.350;11.102;2023-05-16T03:01:45;99770.75;;;14.02;53.21
27805;BME280;15183;51.350;11.102;2023-05-16T03:04:11;99774.66;;;13.95;53.79
27805;BME280;15183;51.350;11.102;2023-05-16T03:06:38;99766.91;;;13.93;53.49
27805;BME280;15183;51.350;11.102;2023-05-16T03:09:04;99755.28;;;13.77;53.80
27805;BME280;15183;51.350;11.102;2023-05-16T03:11:31;99762.84;;;13.85;53.87
27805;BME280;15183;51.350;11.102;2023-05-16T03:13:57;99775.34;;;13.85;54.01
27805;BME280;15183;51.350;11.102;2023-05-16T03:16:25;99764.88;;;13.78;53.60
27805;BME280;15183;51.350;11.102;2023-05-16T03:18:51;99765.38;;;13.75;53.94
27805;BME280;15183;51.350;11.102;2023-05-16T03:21:18;99771.50;;;13.75;53.71
27805;BME280;15183;51.350;11.102;2023-05-16T03:23:44;99767.19;;;13.69;53.69
27805;BME280;15183;51.350;11.102;2023-05-16T03:26:10;99774.13;;;13.70;53.95
27805;BME280;15183;51.350;11.102;2023-05-16T03:28:37;99784.94;;;13.64;53.78
27805;BME280;15183;51.350;11.102;2023-05-16T03:31:03;99782.94;;;13.54;54.01
27805;BME280;15183;51.350;11.102;2023-05-16T03:33:30;99795.94;;;13.50;53.74
27805;BME280;15183;51.350;11.102;2023-05-16T03:35:56;99791.25;;;13.40;54.39
27805;BME280;15183;51.350;11.102;2023-05-16T03:38:23;99787.72;;;13.35;54.44
27805;BME280;15183;51.350;11.102;2023-05-16T03:40:49;99783.88;;;13.25;54.52
27805;BME280;15183;51.350;11.102;2023-05-16T03:43:16;99793.69;;;13.25;54.79
27805;BME280;15183;51.350;11.102;2023-05-16T03:45:42;99790.97;;;13.20;54.54
27805;BME280;15183;51.350;11.102;2023-05-16T03:48:09;99796.53;;;13.18;54.68
27805;BME280;15183;51.350;11.102;2023-05-16T03:50:35;99799.19;;;13.18;54.94
27805;BME280;15183;51.350;11.102;2023-05-16T03:53:02;99791.94;;;13.13;55.04
27805;BME280;15183;51.350;11.102;2023-05-16T03:55:29;99803.13;;;13.15;55.12
27805;BME280;15183;51.350;11.102;2023-05-16T03:57:56;99805.56;;;13.17;55.00
27805;BME280;15183;51.350;11.102;2023-05-16T04:00:22;99814.50;;;13.28;54.90
27805;BME280;15183;51.350;11.102;2023-05-16T04:02:49;99805.06;;;13.37;55.36
27805;BME280;15183;51.350;11.102;2023-05-16T04:05:15;99818.03;;;13.51;55.15
27805;BME280;15183;51.350;11.102;2023-05-16T04:07:42;99814.94;;;13.59;55.14
27805;BME280;15183;51.350;11.102;2023-05-16T04:10:09;99828.88;;;13.83;54.83
27805;BME280;15183;51.350;11.102;2023-05-16T04:12:36;99832.56;;;14.04;55.40
27805;BME280;15183;51.350;11.102;2023-05-16T04:15:06;99844.56;;;14.29;54.71
27805;BME280;15183;51.350;11.102;2023-05-16T04:17:33;99844.28;;;14.53;54.88
27805;BME280;15183;51.350;11.102;2023-05-16T04:19:59;99853.81;;;14.71;54.38
27805;BME280;15183;51.350;11.102;2023-05-16T04:22:26;99861.44;;;14.90;54.53
27805;BME280;15183;51.350;11.102;2023-05-16T04:24:52;99863.69;;;15.03;54.71
27805;BME280;15183;51.350;11.102;2023-05-16T04:27:19;99860.59;;;15.17;54.33
27805;BME280;15183;51.350;11.102;2023-05-16T04:29:45;99859.91;;;15.32;54.37
27805;BME280;15183;51.350;11.102;2023-05-16T04:32:11;99859.44;;;15.45;54.17
27805;BME280;15183;51.350;11.102;2023-05-16T04:34:38;99834.66;;;15.50;54.12
27805;BME280;15183;51.350;11.102;2023-05-16T04:37:05;99852.38;;;15.72;54.12
27805;BME280;15183;51.350;11.102;2023-05-16T04:39:34;99848.97;;;15.82;53.35
27805;BME280;15183;51.350;11.102;2023-05-16T04:42:01;99861.13;;;16.05;53.67
27805;BME280;15183;51.350;11.102;2023-05-16T04:44:28;99866.53;;;16.20;53.76
27805;BME280;15183;51.350;11.102;2023-05-16T04:46:54;99855.56;;;16.27;53.31
27805;BME280;15183;51.350;11.102;2023-05-16T04:49:21;99870.06;;;16.42;52.89
27805;BME280;15183;51.350;11.102;2023-05-16T04:51:48;99871.38;;;16.34;52.91
27805;BME280;15183;51.350;11.102;2023-05-16T04:54:14;99875.69;;;16.45;52.77
27805;BME280;15183;51.350;11.102;2023-05-16T04:56:41;99873.28;;;16.44;52.63
27805;BME280;15183;51.350;11.102;2023-05-16T04:59:07;99890.94;;;16.45;52.99
27805;BME280;15183;51.350;11.102;2023-05-16T05:01:33;99891.47;;;16.42;52.53
27805;BME280;15183;51.350;11.102;2023-05-16T05:04:00;99907.22;;;16.43;52.35
27805;BME280;15183;51.350;11.102;2023-05-16T05:06:26;99904.84;;;16.47;52.51
27805;BME280;15183;51.350;11.102;2023-05-16T05:08:53;99911.25;;;16.46;52.26
27805;BME280;15183;51.350;11.102;2023-05-16T05:11:20;99913.94;;;16.51;52.27
27805;BME280;15183;51.350;11.102;2023-05-16T05:13:46;99927.34;;;16.61;52.29
27805;BME280;15183;51.350;11.102;2023-05-16T05:16:12;99930.00;;;16.61;52.10
27805;BME280;15183;51.350;11.102;2023-05-16T05:18:39;99920.38;;;16.55;52.03
27805;BME280;15183;51.350;11.102;2023-05-16T05:21:05;99935.66;;;16.60;52.11
27805;BME280;15183;51.350;11.102;2023-05-16T05:23:32;99925.47;;;16.57;51.97
27805;BME280;15183;51.350;11.102;2023-05-16T05:25:59;99931.34;;;16.54;51.56
27805;BME280;15183;51.350;11.102;2023-05-16T05:28:27;99930.22;;;16.44;51.77
27805;BME280;15183;51.350;11.102;2023-05-16T05:30:53;99932.34;;;16.37;51.93
27805;BME280;15183;51.350;11.102;2023-05-16T05:33:26;99945.97;;;16.30;51.75
27805;BME280;15183;51.350;11.102;2023-05-16T05:35:54;99951.88;;;16.32;51.63
27805;BME280;15183;51.350;11.102;2023-05-16T05:38:20;99942.25;;;16.31;51.98
27805;BME280;15183;51.350;11.102;2023-05-16T05:40:47;99949.16;;;16.27;51.64
27805;BME280;15183;51.350;11.102;2023-05-16T05:43:14;99952.06;;;16.15;52.10
27805;BME280;15183;51.350;11.102;2023-05-16T05:45:41;99948.31;;;16.16;51.88
27805;BME280;15183;51.350;11.102;2023-05-16T05:48:08;99938.41;;;16.12;52.18
27805;BME280;15183;51.350;11.102;2023-05-16T05:50:36;99932.50;;;16.10;52.33
27805;BME280;15183;51.350;11.102;2023-05-16T05:53:03;99953.06;;;16.09;51.98
27805;BME280;15183;51.350;11.102;2023-05-16T05:55:29;99951.75;;;16.06;52.35
27805;BME280;15183;51.350;11.102;2023-05-16T05:57:55;99963.00;;;16.14;52.26
27805;BME280;15183;51.350;11.102;2023-05-16T06:00:22;99954.97;;;16.14;52.29
27805;BME280;15183;51.350;11.102;2023-05-16T06:02:48;99963.34;;;16.28;52.49
27805;BME280;15183;51.350;11.102;2023-05-16T06:05:15;99963.09;;;16.29;51.85
27805;BME280;15183;51.350;11.102;2023-05-16T06:07:41;99960.97;;;16.37;51.72
27805;BME280;15183;51.350;11.102;2023-05-16T06:10:08;99967.66;;;16.39;52.28
27805;BME280;15183;51.350;11.102;2023-05-16T06:12:34;99964.44;;;16.37;51.72
27805;BME280;15183;51.350;11.102;2023-05-16T06:15:00;99967.94;;;16.38;51.98
27805;BME280;15183;51.350;11.102;2023-05-16T06:17:27;99962.81;;;16.36;51.58
27805;BME280;15183;51.350;11.102;2023-05-16T06:19:53;99977.31;;;16.45;51.75
27805;BME280;15183;51.350;11.102;2023-05-16T06:22:20;99971.72;;;16.52;51.57
27805;BME280;15183;51.350;11.102;2023-05-16T06:24:46;99977.09;;;16.57;52.04
27805;BME280;15183;51.350;11.102;2023-05-16T06:27:12;99965.06;;;16.55;51.80
27805;BME280;15183;51.350;11.102;2023-05-16T06:29:39;99972.81;;;16.56;51.60
27805;BME280;15183;51.350;11.102;2023-05-16T06:32:06;99979.22;;;16.60;51.78
27805;BME280;15183;51.350;11.102;2023-05-16T06:34:32;99986.19;;;16.56;51.54
27805;BME280;15183;51.350;11.102;2023-05-16T06:36:58;99989.38;;;16.53;51.67
27805;BME280;15183;51.350;11.102;2023-05-16T06:39:25;99993.16;;;16.62;52.01
27805;BME280;15183;51.350;11.102;2023-05-16T06:41:51;99994.53;;;16.70;51.88
27805;BME280;15183;51.350;11.102;2023-05-16T06:44:18;99991.06;;;16.75;51.38
27805;BME280;15183;51.350;11.102;2023-05-16T06:46:44;99992.69;;;16.76;51.62
27805;BME280;15183;51.350;11.102;2023-05-16T06:49:11;99981.97;;;16.71;51.23
27805;BME280;15183;51.350;11.102;2023-05-16T06:51:37;99980.38;;;16.80;51.13
27805;BME280;15183;51.350;11.102;2023-05-16T06:54:04;99994.84;;;16.95;51.50
27805;BME280;15183;51.350;11.102;2023-05-16T06:56:31;99993.78;;;16.96;51.43
27805;BME280;15183;51.350;11.102;2023-05-16T06:58:57;99995.91;;;16.88;51.00
27805;BME280;15183;51.350;11.102;2023-05-16T07:01:26;100004.22;;;16.87;51.30
27805;BME280;15183;51.350;11.102;2023-05-16T07:03:53;100001.25;;;16.83;51.45
27805;BME280;15183;51.350;11.102;2023-05-16T07:06:20;100012.50;;;16.85;51.15
27805;BME280;15183;51.350;11.102;2023-05-16T07:08:47;99999.13;;;16.85;50.86
27805;BME280;15183;51.350;11.102;2023-05-16T07:11:13;100001.25;;;16.78;50.75
27805;BME280;15183;51.350;11.102;2023-05-16T07:13:40;100002.56;;;16.81;51.14
27805;BME280;15183;51.350;11.102;2023-05-16T07:16:06;100006.59;;;16.78;51.07
27805;BME280;15183;51.350;11.102;2023-05-16T07:18:33;100014.31;;;16.69;50.94
27805;BME280;15183;51.350;11.102;2023-05-16T07:21:00;100005.97;;;16.60;51.33
27805;BME280;15183;51.350;11.102;2023-05-16T07:23:26;100011.34;;;16.60;51.13
27805;BME280;15183;51.350;11.102;2023-05-16T07:25:52;100010.53;;;16.60;51.27
27805;BME280;15183;51.350;11.102;2023-05-16T07:28:19;100012.16;;;16.61;50.85
27805;BME280;15183;51.350;11.102;2023-05-16T07:30:47;100019.66;;;16.64;50.89
27805;BME280;15183;51.350;11.102;2023-05-16T07:33:13;100024.78;;;16.71;51.27
27805;BME280;15183;51.350;11.102;2023-05-16T07:35:40;100024.22;;;16.69;51.26
27805;BME280;15183;51.350;11.102;2023-05-16T07:38:06;100023.94;;;16.65;51.06
27805;BME280;15183;51.350;11.102;2023-05-16T07:40:33;100029.00;;;16.61;51.13
27805;BME280;15183;51.350;11.102;2023-05-16T07:42:59;100019.34;;;16.60;50.81
27805;BME280;15183;51.350;11.102;2023-05-16T07:45:25;100012.69;;;16.58;50.90
27805;BME280;15183;51.350;11.102;2023-05-16T07:47:52;100013.47;;;16.58;50.61
27805;BME280;15183;51.350;11.102;2023-05-16T07:50:18;100020.94;;;16.56;50.67
27805;BME280;15183;51.350;11.102;2023-05-16T07:52:45;100026.31;;;16.56;50.77
27805;BME280;15183;51.350;11.102;2023-05-16T07:55:12;100044.50;;;16.59;50.61
27805;BME280;15183;51.350;11.102;2023-05-16T07:57:38;100038.56;;;16.47;50.41
27805;BME280;15183;51.350;11.102;2023-05-16T08:00:06;100050.31;;;16.41;50.42
27805;BME280;15183;51.350;11.102;2023-05-16T08:02:33;100033.41;;;16.30;50.80
27805;BME280;15183;51.350;11.102;2023-05-16T08:05:00;100051.38;;;16.40;50.82
27805;BME280;15183;51.350;11.102;2023-05-16T08:07:26;100048.41;;;16.36;50.53
27805;BME280;15183;51.350;11.102;2023-05-16T08:09:53;100069.84;;;16.46;50.16
27805;BME280;15183;51.350;11.102;2023-05-16T08:12:19;100049.75;;;16.39;50.58
27805;BME280;15183;51.350;11.102;2023-05-16T08:18:25;100056.69;;;16.34;50.19
27805;BME280;15183;51.350;11.102;2023-05-16T08:20:51;100064.75;;;16.40;49.74
27805;BME280;15183;51.350;11.102;2023-05-16T08:23:18;100072.28;;;16.48;50.47
27805;BME280;15183;51.350;11.102;2023-05-16T08:25:44;100072.56;;;16.52;49.77
27805;BME280;15183;51.350;11.102;2023-05-16T08:28:10;100055.97;;;16.49;50.15
27805;BME280;15183;51.350;11.102;2023-05-16T08:30:37;100076.13;;;16.68;50.06
27805;BME280;15183;51.350;11.102;2023-05-16T08:33:05;100069.19;;;16.72;49.27
27805;BME280;15183;51.350;11.102;2023-05-16T08:35:32;100069.72;;;16.74;49.65
27805;BME280;15183;51.350;11.102;2023-05-16T08:38:00;100070.28;;;16.81;49.43
27805;BME280;15183;51.350;11.102;2023-05-16T08:40:28;100070.03;;;16.83;49.41
27805;BME280;15183;51.350;11.102;2023-05-16T08:42:55;100056.16;;;16.86;49.60
27805;BME280;15183;51.350;11.102;2023-05-16T08:45:22;100046.47;;;16.85;49.74
27805;BME280;15183;51.350;11.102;2023-05-16T08:47:49;100064.50;;;17.00;49.12
27805;BME280;15183;51.350;11.102;2023-05-16T08:50:19;100058.88;;;17.01;49.01
27805;BME280;15183;51.350;11.102;2023-05-16T08:52:46;100058.88;;;17.01;49.23
27805;BME280;15183;51.350;11.102;2023-05-16T08:55:16;100058.34;;;17.04;49.15
27805;BME280;15183;51.350;11.102;2023-05-16T08:57:44;100073.66;;;17.14;48.74
27805;BME280;15183;51.350;11.102;2023-05-16T09:00:12;100068.31;;;17.19;48.92
27805;BME280;15183;51.350;11.102;2023-05-16T09:02:40;100057.84;;;17.18;48.82
27805;BME280;15183;51.350;11.102;2023-05-16T09:05:13;100053.03;;;17.10;49.01
27805;BME280;15183;51.350;11.102;2023-05-16T09:07:41;100049.00;;;17.07;49.28
27805;BME280;15183;51.350;11.102;2023-05-16T09:10:09;100055.44;;;17.11;49.04
27805;BME280;15183;51.350;11.102;2023-05-16T09:12:36;100050.88;;;17.12;49.27
27805;BME280;15183;51.350;11.102;2023-05-16T09:15:04;100063.50;;;17.16;49.16
27805;BME280;15183;51.350;11.102;2023-05-16T09:17:41;100038.81;;;17.04;49.04
27805;BME280;15183;51.350;11.102;2023-05-16T09:20:18;100057.31;;;17.11;49.43
27805;BME280;15183;51.350;11.102;2023-05-16T09:22:58;100056.50;;;17.10;48.79
27805;BME280;15183;51.350;11.102;2023-05-16T09:25:29;100050.09;;;17.11;49.12
27805;BME280;15183;51.350;11.102;2023-05-16T09:27:58;100055.47;;;17.21;49.13
27805;BME280;15183;51.350;11.102;2023-05-16T09:30:32;100070.47;;;17.33;48.88
27805;BME280;15183;51.350;11.102;2023-05-16T09:32:59;100073.69;;;17.40;48.41
27805;BME280;15183;51.350;11.102;2023-05-16T09:35:25;100059.50;;;17.34;48.55
27805;BME280;15183;51.350;11.102;2023-05-16T09:37:53;100073.75;;;17.56;48.19
27805;BME280;15183;51.350;11.102;2023-05-16T09:40:22;100074.53;;;17.61;48.32
27805;BME280;15183;51.350;11.102;2023-05-16T09:43:04;100083.91;;;17.54;48.32
27805;BME280;15183;51.350;11.102;2023-05-16T09:45:32;100061.66;;;17.27;47.72
27805;BME280;15183;51.350;11.102;2023-05-16T09:48:08;100074.19;;;17.21;47.50
27805;BME280;15183;51.350;11.102;2023-05-16T09:50:36;100077.94;;;17.20;47.85
27805;BME280;15183;51.350;11.102;2023-05-16T09:53:03;100055.69;;;17.10;47.79
27805;BME280;15183;51.350;11.102;2023-05-16T09:55:31;100061.88;;;17.20;47.41
27805;BME280;15183;51.350;11.102;2023-05-16T09:57:58;100070.47;;;17.23;47.49
27805;BME280;15183;51.350;11.102;2023-05-16T10:00:31;100065.13;;;17.33;47.48
27805;BME280;15183;51.350;11.102;2023-05-16T10:03:01;100063.28;;;17.49;47.24
27805;BME280;15183;51.350;11.102;2023-05-16T10:05:31;100059.25;;;17.62;47.20
27805;BME280;15183;51.350;11.102;2023-05-16T10:07:58;100081.25;;;17.85;46.95
27805;BME280;15183;51.350;11.102;2023-05-16T10:10:59;100078.56;;;18.00;46.49
27805;BME280;15183;51.350;11.102;2023-05-16T10:13:29;100084.22;;;18.19;46.53
27805;BME280;15183;51.350;11.102;2023-05-16T10:15:58;100087.13;;;18.39;46.77
27805;BME280;15183;51.350;11.102;2023-05-16T10:18:29;100076.94;;;18.41;46.00
27805;BME280;15183;51.350;11.102;2023-05-16T10:21:09;100082.00;;;18.47;45.48
27805;BME280;15183;51.350;11.102;2023-05-16T10:23:43;100089.00;;;18.48;45.37
27805;BME280;15183;51.350;11.102;2023-05-16T10:26:10;100105.88;;;18.59;45.07
27805;BME280;15183;51.350;11.102;2023-05-16T10:28:39;100086.56;;;18.47;43.75
27805;BME280;15183;51.350;11.102;2023-05-16T10:31:07;100110.69;;;18.62;43.62
27805;BME280;15183;51.350;11.102;2023-05-16T10:33:35;100112.84;;;18.55;43.20
27805;BME280;15183;51.350;11.102;2023-05-16T10:36:02;100111.47;;;18.63;43.56
27805;BME280;15183;51.350;11.102;2023-05-16T10:38:30;100118.97;;;18.82;43.10
27805;BME280;15183;51.350;11.102;2023-05-16T10:40:57;100107.88;;;18.93;43.05
27805;BME280;15183;51.350;11.102;2023-05-16T10:43:26;100110.78;;;19.13;42.47
27805;BME280;15183;51.350;11.102;2023-05-16T10:46:01;100102.50;;;19.09;42.60
27805;BME280;15183;51.350;11.102;2023-05-16T10:48:36;100110.75;;;19.23;41.60
27805;BME280;15183;51.350;11.102;2023-05-16T10:51:33;100120.38;;;19.29;41.22
27805;BME280;15183;51.350;11.102;2023-05-16T10:54:10;100119.59;;;19.23;41.23
27805;BME280;15183;51.350;11.102;2023-05-16T10:56:39;100117.41;;;19.31;41.39
27805;BME280;15183;51.350;11.102;2023-05-16T10:59:23;100111.41;;;19.49;41.11
27805;BME280;15183;51.350;11.102;2023-05-16T11:01:54;100097.09;;;19.59;40.91
27805;BME280;15183;51.350;11.102;2023-05-16T11:04:21;100118.66;;;19.89;39.61
27805;BME280;15183;51.350;11.102;2023-05-16T11:06:52;100113.94;;;20.10;40.28
27805;BME280;15183;51.350;11.102;2023-05-16T11:09:24;100114.50;;;20.36;39.80
27805;BME280;15183;51.350;11.102;2023-05-16T11:11:58;100119.13;;;20.60;40.07
27805;BME280;15183;51.350;11.102;2023-05-16T11:17:08;100124.97;;;20.92;39.26
27805;BME280;15183;51.350;11.102;2023-05-16T11:19:41;100107.72;;;20.93;38.47
27805;BME280;15183;51.350;11.102;2023-05-16T11:24:59;100123.41;;;21.10;39.21
27805;BME280;15183;51.350;11.102;2023-05-16T11:27:42;100119.25;;;21.18;37.85
27805;BME280;15183;51.350;11.102;2023-05-16T11:32:37;100125.84;;;21.31;37.68
27805;BME280;15183;51.350;11.102;2023-05-16T11:35:07;100106.47;;;21.29;37.81
27805;BME280;15183;51.350;11.102;2023-05-16T11:37:34;100105.66;;;21.66;37.82
27805;BME280;15183;51.350;11.102;2023-05-16T11:40:07;100116.25;;;21.96;36.99
27805;BME280;15183;51.350;11.102;2023-05-16T11:42:38;100118.09;;;22.15;37.06
27805;BME280;15183;51.350;11.102;2023-05-16T11:45:10;100131.16;;;22.40;36.55
27805;BME280;15183;51.350;11.102;2023-05-16T11:47:38;100130.09;;;22.55;36.48
27805;BME280;15183;51.350;11.102;2023-05-16T11:50:16;100118.09;;;22.62;35.63
27805;BME280;15183;51.350;11.102;2023-05-16T11:52:45;100098.47;;;22.56;36.14
27805;BME280;15183;51.350;11.102;2023-05-16T11:55:12;100109.69;;;22.63;35.82
27805;BME280;15183;51.350;11.102;2023-05-16T11:57:40;100119.31;;;22.55;35.92
27805;BME280;15183;51.350;11.102;2023-05-16T12:00:18;100118.22;;;22.57;36.30
27805;BME280;15183;51.350;11.102;2023-05-16T12:02:48;100126.81;;;22.59;35.21
27805;BME280;15183;51.350;11.102;2023-05-16T12:05:16;100111.78;;;22.52;35.57
27805;BME280;15183;51.350;11.102;2023-05-16T12:07:44;100113.50;;;22.62;35.43
27805;BME280;15183;51.350;11.102;2023-05-16T12:10:14;100098.09;;;22.63;34.92
27805;BME280;15183;51.350;11.102;2023-05-16T12:12:44;100116.41;;;22.80;35.11
27805;BME280;15183;51.350;11.102;2023-05-16T12:15:12;100113.00;;;22.88;35.14
27805;BME280;15183;51.350;11.102;2023-05-16T12:17:40;100105.97;;;22.87;34.38
27805;BME280;15183;51.350;11.102;2023-05-16T12:20:10;100112.09;;;22.93;34.04
27805;BME280;15183;51.350;11.102;2023-05-16T12:22:45;100113.47;;;22.90;33.75
27805;BME280;15183;51.350;11.102;2023-05-16T12:25:26;100112.59;;;22.81;34.26
27805;BME280;15183;51.350;11.102;2023-05-16T12:27:56;100120.88;;;22.70;33.48
27805;BME280;15183;51.350;11.102;2023-05-16T12:30:24;100104.88;;;22.60;33.85
27805;BME280;15183;51.350;11.102;2023-05-16T12:32:59;100117.19;;;22.52;34.28
27805;BME280;15183;51.350;11.102;2023-05-16T12:35:32;100118.50;;;22.55;34.49
27805;BME280;15183;51.350;11.102;2023-05-16T12:38:04;100129.09;;;22.65;34.18
27805;BME280;15183;51.350;11.102;2023-05-16T12:40:31;100115.47;;;22.70;33.49
27805;BME280;15183;51.350;11.102;2023-05-16T12:42:58;100114.59;;;22.61;33.65
27805;BME280;15183;51.350;11.102;2023-05-16T12:45:26;100112.44;;;22.44;33.33
27805;BME280;15183;51.350;11.102;2023-05-16T12:47:53;100111.88;;;22.47;33.62
27805;BME280;15183;51.350;11.102;2023-05-16T12:50:19;100102.19;;;22.46;33.46
27805;BME280;15183;51.350;11.102;2023-05-16T12:52:53;100098.97;;;22.58;33.83
27805;BME280;15183;51.350;11.102;2023-05-16T12:55:21;100113.81;;;22.75;33.71
27805;BME280;15183;51.350;11.102;2023-05-16T12:57:48;100127.72;;;22.82;33.18
27805;BME280;15183;51.350;11.102;2023-05-16T13:00:18;100112.38;;;22.77;32.99
27805;BME280;15183;51.350;11.102;2023-05-16T13:02:46;100115.59;;;22.79;33.09
27805;BME280;15183;51.350;11.102;2023-05-16T13:05:12;100111.69;;;22.72;32.96
27805;BME280;15183;51.350;11.102;2023-05-16T13:07:39;100104.28;;;22.63;33.04
27805;BME280;15183;51.350;11.102;2023-05-16T13:10:10;100109.78;;;22.58;32.54